• Join FlightAware (Why Join?)
  • Login
  • US Flag 
09:56PM EDT


 

Airport Tracker/Info


-or-


 

Live Flight TrackerFlight Track Log ✈ SWA2626 ✈ 12-May-2013 ✈ KMHT - KMDW

Flight Track Log - Related Links

Times and Time Zones

All times are in EDT time to prevent confusion due to time zone crossing. See the SWA2626 flight status page for this flight to view local times or setup timezone preferences in your user account.

Time Position Orientation Groundspeed Altitude Reporting Facility
EDT Latitude Longitude Course Direction KTS MPH feet Rate Location/Type
05:20PM 42.9500 -71.4333 332° Northwest 155 178 1,100  Level KA90
05:21PM 42.9797 -71.4553 332° Northwest 196 226 2,600 2,040 Climbing Boston Center
05:22PM 43.0281 -71.4972 328° Northwest 191 220 4,700 2,400 Climbing Boston Center
05:23PM 43.0703 -71.5647 311° West 223 257 7,400 3,060 Climbing Boston Center
05:24PM 43.0875 -71.6697 283° West 253 291 10,900 2,820 Climbing Boston Center
05:25PM 43.0903 -71.7778 272° West 298 343 13,100 3,060 Climbing Boston Center
05:26PM 43.0953 -71.9142 273° West 335 386 17,100 3,480 Climbing Boston Center
05:27PM 43.1000 -72.0306 273° West 335 386 20,100 2,700 Climbing Boston Center
05:28PM 43.1044 -72.1669 273° West 352 405 22,600 1,740 Climbing Boston Center
05:29PM 43.1172 -72.3150 277° West 358 412 23,600 1,560 Climbing Boston Center
05:30PM 43.1214 -72.4514 272° West 363 418 25,800 1,980 Climbing Boston Center
05:31PM 43.1256 -72.6022 272° West 375 432 27,600 1,680 Climbing Boston Center
05:32PM 43.1211 -72.7531 268° West 386 444 29,200 1,800 Climbing Boston Center
05:33PM 43.1228 -72.9036 271° West 396 456 31,200 1,620 Climbing Boston Center
05:34PM 43.1283 -73.0431 273° West 410 472 32,500 1,500 Climbing Boston Center
05:35PM 43.1314 -73.2167 271° West 410 472 34,300 1,560 Climbing Boston Center
05:36PM 43.1322 -73.3647 270° West 410 472 35,700 1,260 Climbing Boston Center
05:37PM 43.1372 -73.5156 273° West 397 457 36,900 900 Climbing Boston Center
05:38PM 43.1400 -73.6692 271° West 402 463 37,500 540 Climbing Boston Center
05:39PM 43.1422 -73.8344 271° West 418 481 38,000 240 Climbing Boston Center
05:40PM 43.1442 -73.9939 271° West 424 488 38,000 -60 Level Boston Center
05:41PM 43.1483 -74.1503 272° West 424 488 37,900  Descending Boston Center
05:42PM 43.1500 -74.3069 271° West 419 482 38,000  Climbing Boston Center
05:43PM 43.1517 -74.4464 271° West 419 482 38,000  Level Boston Center
05:44PM 43.1550 -74.6089 272° West 419 482 38,000  Level Boston Center
05:45PM 43.1561 -74.7711 271° West 419 482 38,000  Level Boston Center
05:46PM 43.1589 -74.9336 271° West 419 482 38,000  Level Boston Center
05:47PM 43.1572 -75.0928 269° West 419 482 38,000  Level Boston Center
05:48PM 43.1597 -75.2553 271° West 424 488 38,000  Level Boston Center
05:49PM 43.1597 -75.4175 270° West 424 488 38,000  Level Boston Center
05:50PM 43.1617 -75.5772 271° West 424 488 38,000  Level Boston Center
05:51PM 43.1636 -75.7367 271° West 419 482 38,000  Level Boston Center
05:52PM 43.1628 -75.8989 270° West 419 482 38,000  Level Boston Center
05:53PM 43.1622 -76.0556 270° West 419 482 38,000  Level Boston Center
05:54PM 43.1314 -76.3042 260° West 422 486 38,000  Level Cleveland Center
05:55PM 43.0864 -76.4439 246° West 401 461 38,000  Level Cleveland Center
05:56PM 43.0433 -76.5803 247° West 406 467 38,000  Level Cleveland Center
05:57PM 42.9981 -76.7167 246° West 401 461 38,000  Level Cleveland Center
05:58PM 42.9525 -76.8556 246° West 401 461 38,000  Level Cleveland Center
05:59PM 42.9089 -76.9944 247° West 401 461 38,000  Level Cleveland Center
06:00PM 42.8650 -77.1300 246° West 401 461 38,000  Level Cleveland Center
06:01PM 42.8189 -77.2656 245° Southwest 401 461 38,000  Level Cleveland Center
06:02PM 42.7750 -77.4036 247° West 401 461 38,000  Level Cleveland Center
06:03PM 42.7267 -77.5447 245° Southwest 406 467 38,000  Level Cleveland Center
06:04PM 42.6864 -77.6767 247° West 401 461 38,000  Level Cleveland Center
06:05PM 42.6375 -77.8089 243° Southwest 396 456 38,000  Level Cleveland Center
06:06PM 42.5986 -77.9317 247° West 386 444 38,000  Level Cleveland Center
06:07PM 42.5536 -78.0633 245° Southwest 386 444 38,000  Level Cleveland Center
06:08PM 42.5086 -78.1975 246° West 386 444 38,000  Level Cleveland Center
06:09PM 42.4633 -78.3344 246° West 386 444 38,000  Level Cleveland Center
06:10PM 42.4158 -78.4711 245° Southwest 391 450 38,000  Level Cleveland Center
06:11PM 42.3703 -78.6047 245° Southwest 391 450 38,000  Level Cleveland Center
06:12PM 42.3225 -78.7381 244° Southwest 396 456 38,000  Level Cleveland Center
06:13PM 42.2767 -78.8769 246° West 396 456 38,000  Level Cleveland Center
06:14PM 42.2206 -79.0300 244° Southwest 408 470 38,000  Level Cleveland Center
06:15PM 42.1764 -79.1656 246° West 408 470 38,000  Level Cleveland Center
06:16PM 42.1425 -79.3092 252° West 403 464 38,000  Level Cleveland Center
06:17PM 42.1214 -79.4606 259° West 403 464 38,000  Level Cleveland Center
06:18PM 42.1039 -79.6119 261° West 409 471 38,000  Level Cleveland Center
06:19PM 42.0864 -79.7633 261° West 409 471 38,000  Level Cleveland Center
06:20PM 42.0686 -79.9119 261° West 409 471 38,000  Level Cleveland Center
06:21PM 42.0506 -80.0519 260° West 414 476 38,000  Level Cleveland Center
06:22PM 42.0281 -80.2142 259° West 409 471 38,000  Level Cleveland Center
06:23PM 42.0097 -80.3625 261° West 409 471 38,000  Level Cleveland Center
06:24PM 41.9911 -80.5133 261° West 409 471 38,000  Level Cleveland Center
06:25PM 41.9703 -80.6614 259° West 409 471 38,000  Level Cleveland Center
06:26PM 41.9514 -80.8064 260° West 409 471 38,000  Level Cleveland Center
06:27PM 41.9322 -80.9517 260° West 404 465 38,000  Level Cleveland Center
06:28PM 41.9131 -81.1022 260° West 404 465 38,000  Level Cleveland Center
06:29PM 41.8933 -81.2469 260° West 409 471 38,000  Level Cleveland Center
06:30PM 41.8736 -81.3947 260° West 409 471 38,000  Level Cleveland Center
06:31PM 41.8517 -81.5419 259° West 409 471 38,000  Level Cleveland Center
06:32PM 41.8317 -81.6867 260° West 409 471 38,000  Level Cleveland Center
06:33PM 41.8092 -81.8367 259° West 409 471 38,000  Level Cleveland Center
06:34PM 41.7931 -81.9700 261° West 409 471 38,000  Level Cleveland Center
06:35PM 41.7706 -82.1144 258° West 404 465 38,000  Level Cleveland Center
06:36PM 41.7475 -82.2725 259° West 404 465 38,000  Level Cleveland Center
06:37PM 41.7264 -82.4194 259° West 410 472 38,000  Level Cleveland Center
06:38PM 41.7050 -82.5661 259° West 410 472 38,000  Level Cleveland Center
06:39PM 41.6836 -82.7131 259° West 410 472 38,000  Level Cleveland Center
06:40PM 41.6539 -82.8536 254° West 410 472 38,000  Level Cleveland Center
06:41PM 41.6078 -82.9714 242° Southwest 405 466 38,000  Level Cleveland Center
06:42PM 41.5592 -83.1000 243° Southwest 405 466 38,000  Level Cleveland Center
06:43PM 41.5017 -83.2422 242° Southwest 400 460 38,000  Level Cleveland Center
06:44PM 41.4528 -83.3731 244° Southwest 400 460 38,000  Level Cleveland Center
06:45PM 41.4017 -83.5011 242° Southwest 400 460 38,000  Level Cleveland Center
06:46PM 41.3522 -83.6317 243° Southwest 400 460 38,000  Level Cleveland Center
06:47PM 41.3089 -83.7678 247° West 400 460 38,000  Level Cleveland Center
06:48PM 41.3236 -83.9094 278° West 381 438 38,000  Level Cleveland Center
06:49PM 41.3381 -84.0542 278° West 381 438 38,000  Level Cleveland Center
06:50PM 41.3506 -84.1942 277° West 395 455 38,000 -420 Level Chicago Center
06:51PM 41.3650 -84.3386 278° West 396 456 37,200 -1,800 Descending Chicago Center
06:52PM 41.3808 -84.4825 278° West 394 453 34,400 -2,880 Descending Chicago Center
06:53PM 41.3950 -84.6258 278° West 393 452 31,300 -2,520 Descending Chicago Center
06:54PM 41.4119 -84.7953 278° West 386 444 29,300 -2,400 Descending Chicago Center
06:55PM 41.4247 -84.9297 277° West 370 426 26,400 -2,580 Descending Chicago Center
06:56PM 41.4369 -85.0617 277° West 362 417 24,000 -1,200 Descending Chicago Center
06:57PM 41.4486 -85.1875 277° West 346 398 24,000 -120 Level Chicago Center
06:58PM 41.4603 -85.3119 277° West 338 389 23,800 -660 Descending Chicago Center
06:59PM 41.4719 -85.4361 277° West 335 386 22,700 -1,140 Descending Chicago Center
07:00PM 41.4850 -85.5831 277° West 329 379 21,500 -1,080 Descending Chicago Center
07:02PM 41.4939 -85.7036 276° West 326 375 20,500 -1,020 Descending Chicago Center
07:03PM 41.4981 -85.8247 273° West 325 374 19,500 -1,020 Descending Chicago Center
07:04PM 41.5036 -85.9428 274° West 321 369 18,500 -1,260 Descending Chicago Center
07:05PM 41.5092 -86.0586 274° West 316 364 17,000 -1,740 Descending Chicago Center
07:06PM 41.5139 -86.1681 273° West 299 344 15,000 -1,980 Descending Chicago Center
07:07PM 41.5181 -86.2769 273° West 295 339 13,000 -1,920 Descending Chicago Center
07:08PM 41.5231 -86.4047 273° West 289 333 11,100 -1,440 Descending Chicago Center
07:09PM 41.5214 -86.5092 269° West 283 326 10,100 -540 Descending Chicago Center
07:10PM 41.5219 -86.6075 270° West 270 311 10,000  Descending Chicago Center
07:11PM 41.5194 -86.7044 268° West 264 304 10,100  Climbing Chicago Center
07:12PM 41.5206 -86.8200 271° West 268 308 10,000 -240 Descending Chicago Center
07:13PM 41.5194 -86.9144 269° West 257 296 9,700 -900 Descending Chicago Center
07:14PM 41.5211 -87.0072 271° West 251 289 8,200 -1,560 Descending Chicago Center
07:15PM 41.5364 -87.0958 283° West 247 284 6,600 -1,260 Descending Chicago Center
07:16PM 41.5500 -87.1667 284° West 243 280 6,000 -360 Descending Chicago TRACON
07:17PM 41.5667 -87.2667 283° West 244 281 6,000  Level Chicago TRACON
07:18PM 41.5667 -87.3500 270° West 244 281 6,000 -120 Level Chicago TRACON
07:18PM 41.5769 -87.3792 295° West 242 278 5,900 -1,200 Descending Chicago Center
07:19PM 41.6006 -87.4636 291° West 244 281 4,400 -1,020 Descending Chicago Center
07:20PM 41.6256 -87.5478 292° West 245 282 3,900 -240 Descending Chicago Center
07:21PM 41.6500 -87.6283 292° West 242 278 4,000 -480 Climbing Chicago Center
07:22PM 41.6667 -87.6833 292° West 187 215 3,200 -1,020 Descending Chicago TRACON
07:23PM 41.6833 -87.7333 294° West 182 209 2,500 -480 Descending Chicago TRACON
07:24PM 41.7000 -87.7833 294° West 174 200 2,300 -420 Descending Chicago TRACON
07:25PM 41.7333 -87.8167 323° Northwest 150 173 1,700 -660 Descending Chicago TRACON
07:26PM 41.7667 -87.7833 37° Northeast 131 151 1,000 -720 Descending Chicago TRACON
07:28PM 41.7833 -87.7500 334° Northwest  Level FlightAware Approximate